Parc Rodriguez Olmo, Puerto Rico
Current Conditions -  °F | °C
As of 3:50 PM on Friday 19 Dec 2014 (Local Time) from TJBQ Reporting Station
Clear Clear  
Wind Chill: 82°   Ceiling: Unl
Heat Index: 86°   Visibility: 10mi
Dew Point: 70°   Wind: 17mph
Humidity: 66%   Direction: 60°ENE
Pressure: 29.95"   Gusts: 22mph
Location:  18.4739°N, 66.7295°W
Report Text: TJBQ 191950Z 06015G19KT 10SM SKC 28/21 A2995 RMK RWY08 ATIS R
Loading
Personal Weather Stations






























Interactive Weather Map New forecast layout! Learn more

10-Day Weather Forecast

Advertisements
Track Severe Weather on mobile